Le Ponant — FGZZ — position and weather

sailwx.info

Track history (hours):
 
Tides and Currents Weather Stations Pressure Air Temp Water Temp Dewpoint Dewpoint Depression Visibility Wind Speed Wind Dir Waves Ship Positions

Le Ponant

Operator: Compangy des Iles du Ponant

Last reported at 2016-May-31 15:07 UTC. Time now 2016-Jun-01 05:23 UTC.
Position N 42°49' E 010°20'.

Length 84 m; draft 4.2 m.

Type: Passenger vessel. MMSI: 227186000.

Date/timePositionNaut miles runAvg speedWind from/ knotsBaromVisibWave heightAir tempDewpointWater temp
2016-May-31 15:07N 42°49' E 010°20'0 0.0
2016-May-31 07:28N 42°49' E 010°20'3110.7
2016-May-31 04:33N 43°10' E 009°49'1212.1
2016-May-31 03:34N 43°14' E 009°33'1312.5
2016-May-31 02:31N 43°17' E 009°16'1313.0
2016-May-31 01:32N 43°21' E 008°59'6813.7
2016-May-30 20:33N 43°34' E 007°27'10 9.8
2016-May-30 19:30N 43°42' E 007°17'0 0.0
2016-May-30 16:13N 43°42' E 007°17'0 0.0
2016-May-30 14:07N 43°42' E 007°17'0 0.0
2016-May-30 13:31N 43°42' E 007°17'0 0.0
2016-May-30 12:25N 43°42' E 007°17'0 0.0
2016-May-30 11:07N 43°42' E 007°17'0 0.0
2016-May-30 10:31N 43°42' E 007°17'0 0.0
2016-May-30 09:31N 43°42' E 007°17'0 0.0
2016-May-30 08:25N 43°42' E 007°17'0 0.0
2016-May-30 07:25N 43°42' E 007°17'0 0.0
2016-May-30 06:31N 43°42' E 007°17'0 0.0
2016-May-30 05:31N 43°42' E 007°17'0 0.0
2016-May-30 04:25N 43°42' E 007°17'0 0.0
2016-May-30 03:31N 43°42' E 007°17'0 0.0
2016-May-30 02:31N 43°42' E 007°17'0 0.0
2016-May-30 01:31N 43°42' E 007°17'0 0.0
2016-May-30 00:31N 43°42' E 007°17'0 0.0
2016-May-29 23:25N 43°42' E 007°17'0 0.0
2016-May-29 22:31N 43°42' E 007°17'0 0.0
2016-May-29 21:31N 43°42' E 007°17'0 0.0
2016-May-29 20:31N 43°42' E 007°17'0 0.0
2016-May-29 19:25N 43°42' E 007°17'0 0.0
2016-May-29 18:31N 43°42' E 007°17'1 1.0
2016-May-29 17:33N 43°41' E 007°18'7 0.4
2016-May-28 23:13N 43°44' E 007°26'0 0.0
2016-May-28 19:31N 43°44' E 007°26'0 0.0
2016-May-28 14:24N 43°44' E 007°26'0 0.0
2016-May-28 11:18N 43°44' E 007°26'0 0.0
2016-May-28 10:16N 43°44' E 007°26'  
2016-May-25 17:06N 43°44' E 007°26'0 0.4
2016-May-25 16:25N 43°44' E 007°26'6 6.5
2016-May-25 15:33N 43°39' E 007°22'9 8.9
2016-May-25 14:33N 43°34' E 007°13'8 8.4
2016-May-25 13:33N 43°29' E 007°03'4 3.6
2016-May-25 12:31N 43°33' E 007°01'0 0.0
2016-May-25 11:31N 43°33' E 007°01'0 0.0
2016-May-25 10:31N 43°33' E 007°01'0 0.0
2016-May-25 09:31N 43°33' E 007°01'0 0.0
2016-May-25 08:31N 43°33' E 007°01'0 0.0
2016-May-25 07:32N 43°33' E 007°01'4 3.7
2016-May-25 06:33N 43°29' E 007°02'9 9.3
2016-May-25 05:32N 43°32' E 007°14'9 9.4
2016-May-25 04:33N 43°34' E 007°27'57 9.4
2016-May-24 22:31N 43°50' E 008°43'1010.7
2016-May-24 21:34N 43°51' E 008°57'1110.7
2016-May-24 20:34N 43°52' E 009°11'1010.2
2016-May-24 19:34N 43°52' E 009°26'1010.2
2016-May-24 18:34N 43°51' E 009°40'10 9.9
2016-May-24 17:34N 43°51' E 009°54'10 9.7
2016-May-24 16:34N 44°01' E 009°52'3 2.6
2016-May-24 15:33N 44°03' E 009°51'0 0.0
2016-May-24 14:33N 44°03' E 009°51'0 0.0
2016-May-24 13:33N 44°03' E 009°51'0 0.0
2016-May-24 12:33N 44°03' E 009°51'0 0.0
2016-May-24 11:33N 44°03' E 009°51'0 0.0
2016-May-24 10:33N 44°03' E 009°51'0 0.0
2016-May-24 09:33N 44°03' E 009°51'0 0.0
2016-May-24 08:33N 44°03' E 009°51'0 0.1
2016-May-24 07:33N 44°03' E 009°51'2 2.1
2016-May-24 06:33N 44°02' E 009°53'10 9.7
2016-May-24 05:33N 43°52' E 009°54'1111.3
2016-May-24 04:33N 43°44' E 009°44'1111.3
2016-May-24 03:33N 43°41' E 009°29'1211.8
2016-May-24 02:33N 43°41' E 009°13'1211.6
2016-May-24 01:33N 43°41' E 008°57'1211.9
2016-May-24 00:33N 43°40' E 008°40'1211.7
2016-May-23 23:33N 43°40' E 008°24'4310.8
2016-May-23 19:33N 43°38' E 007°24'6 6.4
2016-May-23 18:33N 43°42' E 007°17'0 0.0
2016-May-23 17:06N 43°42' E 007°17'0 0.0
2016-May-23 16:30N 43°42' E 007°17'0 0.0
2016-May-23 15:30N 43°42' E 007°17'0 0.0
2016-May-23 14:30N 43°42' E 007°17'0 0.0
2016-May-23 13:18N 43°42' E 007°17'0 0.0
2016-May-23 11:30N 43°42' E 007°17'8 1.1
2016-May-23 04:33N 43°35' E 007°13'10 7.8
2016-May-23 03:19N 43°30' E 007°01'2 3.0
2016-May-23 02:31N 43°33' E 007°01'0 0.0
2016-May-23 00:07N 43°33' E 007°01'0 0.0
2016-May-22 23:31N 43°33' E 007°01'0 0.0
2016-May-22 22:31N 43°33' E 007°01'0 0.0
2016-May-22 19:31N 43°33' E 007°01'0 0.0
2016-May-22 18:31N 43°33' E 007°01'0 0.0
2016-May-22 15:28N 43°33' E 007°01'0 0.0
2016-May-22 14:31N 43°33' E 007°01'0 0.0
2016-May-22 13:31N 43°33' E 007°01'0 0.0
2016-May-22 11:13N 43°33' E 007°01'0 0.0
2016-May-22 10:31N 43°33' E 007°01'0 0.0
2016-May-22 09:31N 43°33' E 007°01'0 0.4
2016-May-22 08:33N 43°32' E 007°01'  
Track history (hours):
 
Tides and Currents Weather Stations Pressure Air Temp Water Temp Dewpoint Dewpoint Depression Visibility Wind Speed Wind Dir Waves Ship Positions

Le Ponant

Operator: Compangy des Iles du Ponant

Last reported at 2016-May-31 15:07 UTC. Time now 2016-Jun-01 05:23 UTC.
Position N 42°49' E 010°20'.

Length 84 m; draft 4.2 m.

Type: Passenger vessel. MMSI: 227186000.

Date/timePositionNaut miles runAvg speedWind from/ knotsBaromVisibWave heightAir tempDewpointWater temp
2016-May-31 15:07N 42°49' E 010°20'0 0.0
2016-May-31 07:28N 42°49' E 010°20'3110.7
2016-May-31 04:33N 43°10' E 009°49'1212.1
2016-May-31 03:34N 43°14' E 009°33'1312.5
2016-May-31 02:31N 43°17' E 009°16'1313.0
2016-May-31 01:32N 43°21' E 008°59'6813.7
2016-May-30 20:33N 43°34' E 007°27'10 9.8
2016-May-30 19:30N 43°42' E 007°17'0 0.0
2016-May-30 16:13N 43°42' E 007°17'0 0.0
2016-May-30 14:07N 43°42' E 007°17'0 0.0
2016-May-30 13:31N 43°42' E 007°17'0 0.0
2016-May-30 12:25N 43°42' E 007°17'0 0.0
2016-May-30 11:07N 43°42' E 007°17'0 0.0
2016-May-30 10:31N 43°42' E 007°17'0 0.0
2016-May-30 09:31N 43°42' E 007°17'0 0.0
2016-May-30 08:25N 43°42' E 007°17'0 0.0
2016-May-30 07:25N 43°42' E 007°17'0 0.0
2016-May-30 06:31N 43°42' E 007°17'0 0.0
2016-May-30 05:31N 43°42' E 007°17'0 0.0
2016-May-30 04:25N 43°42' E 007°17'0 0.0
2016-May-30 03:31N 43°42' E 007°17'0 0.0
2016-May-30 02:31N 43°42' E 007°17'0 0.0
2016-May-30 01:31N 43°42' E 007°17'0 0.0
2016-May-30 00:31N 43°42' E 007°17'0 0.0
2016-May-29 23:25N 43°42' E 007°17'0 0.0
2016-May-29 22:31N 43°42' E 007°17'0 0.0
2016-May-29 21:31N 43°42' E 007°17'0 0.0
2016-May-29 20:31N 43°42' E 007°17'0 0.0
2016-May-29 19:25N 43°42' E 007°17'0 0.0
2016-May-29 18:31N 43°42' E 007°17'1 1.0
2016-May-29 17:33N 43°41' E 007°18'7 0.4
2016-May-28 23:13N 43°44' E 007°26'0 0.0
2016-May-28 19:31N 43°44' E 007°26'0 0.0
2016-May-28 14:24N 43°44' E 007°26'0 0.0
2016-May-28 11:18N 43°44' E 007°26'0 0.0
2016-May-28 10:16N 43°44' E 007°26'  
2016-May-25 17:06N 43°44' E 007°26'0 0.4
2016-May-25 16:25N 43°44' E 007°26'6 6.5
2016-May-25 15:33N 43°39' E 007°22'9 8.9
2016-May-25 14:33N 43°34' E 007°13'8 8.4
2016-May-25 13:33N 43°29' E 007°03'4 3.6
2016-May-25 12:31N 43°33' E 007°01'0 0.0
2016-May-25 11:31N 43°33' E 007°01'0 0.0
2016-May-25 10:31N 43°33' E 007°01'0 0.0
2016-May-25 09:31N 43°33' E 007°01'0 0.0
2016-May-25 08:31N 43°33' E 007°01'0 0.0
2016-May-25 07:32N 43°33' E 007°01'4 3.7
2016-May-25 06:33N 43°29' E 007°02'9 9.3
2016-May-25 05:32N 43°32' E 007°14'9 9.4
2016-May-25 04:33N 43°34' E 007°27'57 9.4
2016-May-24 22:31N 43°50' E 008°43'1010.7
2016-May-24 21:34N 43°51' E 008°57'1110.7
2016-May-24 20:34N 43°52' E 009°11'1010.2
2016-May-24 19:34N 43°52' E 009°26'1010.2
2016-May-24 18:34N 43°51' E 009°40'10 9.9
2016-May-24 17:34N 43°51' E 009°54'10 9.7
2016-May-24 16:34N 44°01' E 009°52'3 2.6
2016-May-24 15:33N 44°03' E 009°51'0 0.0
2016-May-24 14:33N 44°03' E 009°51'0 0.0
2016-May-24 13:33N 44°03' E 009°51'0 0.0
2016-May-24 12:33N 44°03' E 009°51'0 0.0
2016-May-24 11:33N 44°03' E 009°51'0 0.0
2016-May-24 10:33N 44°03' E 009°51'0 0.0
2016-May-24 09:33N 44°03' E 009°51'0 0.0
2016-May-24 08:33N 44°03' E 009°51'0 0.1
2016-May-24 07:33N 44°03' E 009°51'2 2.1
2016-May-24 06:33N 44°02' E 009°53'10 9.7
2016-May-24 05:33N 43°52' E 009°54'1111.3
2016-May-24 04:33N 43°44' E 009°44'1111.3
2016-May-24 03:33N 43°41' E 009°29'1211.8
2016-May-24 02:33N 43°41' E 009°13'1211.6
2016-May-24 01:33N 43°41' E 008°57'1211.9
2016-May-24 00:33N 43°40' E 008°40'1211.7
2016-May-23 23:33N 43°40' E 008°24'4310.8
2016-May-23 19:33N 43°38' E 007°24'6 6.4
2016-May-23 18:33N 43°42' E 007°17'0 0.0
2016-May-23 17:06N 43°42' E 007°17'0 0.0
2016-May-23 16:30N 43°42' E 007°17'0 0.0
2016-May-23 15:30N 43°42' E 007°17'0 0.0
2016-May-23 14:30N 43°42' E 007°17'0 0.0
2016-May-23 13:18N 43°42' E 007°17'0 0.0
2016-May-23 11:30N 43°42' E 007°17'8 1.1
2016-May-23 04:33N 43°35' E 007°13'10 7.8
2016-May-23 03:19N 43°30' E 007°01'2 3.0
2016-May-23 02:31N 43°33' E 007°01'0 0.0
2016-May-23 00:07N 43°33' E 007°01'0 0.0
2016-May-22 23:31N 43°33' E 007°01'0 0.0
2016-May-22 22:31N 43°33' E 007°01'0 0.0
2016-May-22 19:31N 43°33' E 007°01'0 0.0
2016-May-22 18:31N 43°33' E 007°01'0 0.0
2016-May-22 15:28N 43°33' E 007°01'0 0.0
2016-May-22 14:31N 43°33' E 007°01'0 0.0
2016-May-22 13:31N 43°33' E 007°01'0 0.0
2016-May-22 11:13N 43°33' E 007°01'0 0.0
2016-May-22 10:31N 43°33' E 007°01'0 0.0
2016-May-22 09:31N 43°33' E 007°01'0 0.4
2016-May-22 08:33N 43°32' E 007°01'  

Dump ship's entire track history